Time;durP1;ratioP1;P1;durP2;ratioP2;P2;SDS_P1;SDS_P2;PMS_P1;PMS_P2;Temp;Humidity;BMP_temperature;BMP_pressure;BME280_temperature;BME280_humidity;BME280_pressure;Samples;Min_cycle;Max_cycle;Signal;HPM_P1;HPM_P2
2023/10/19 00:01:17;;;;;;;6.50;2.17;;;;;;;;;;4968685;28;93018;-79
2023/10/19 00:03:44;;;;;;;4.68;2.00;;;;;;;;;;4948492;28;101834;-79
2023/10/19 00:06:14;;;;;;;5.43;2.05;;;;;;;;;;4963291;28;93582;-79
2023/10/19 00:08:46;;;;;;;4.05;1.73;;;;;;;;;;4965460;28;93675;-79
2023/10/19 00:11:24;;;;;;;4.50;2.10;;;;;;;;;;4965782;28;92827;-79
2023/10/19 00:13:50;;;;;;;4.70;2.00;;;;;;;;;;4966799;28;93138;-79
2023/10/19 00:16:17;;;;;;;4.57;2.05;;;;;;;;;;4966409;28;92821;-80
2023/10/19 00:18:44;;;;;;;5.25;1.92;;;;;;;;;;4965567;28;94274;-80
2023/10/19 00:21:19;;;;;;;3.53;1.70;;;;;;;;;;4967743;28;92501;-78
2023/10/19 00:23:51;;;;;;;5.05;1.95;;;;;;;;;;4985842;28;93216;-78
2023/10/19 00:26:19;;;;;;;5.50;1.90;;;;;;;;;;4966240;28;93088;-80
2023/10/19 00:28:57;;;;;;;4.47;2.05;;;;;;;;;;4961769;28;94813;-79
2023/10/19 00:31:33;;;;;;;6.25;2.03;;;;;;;;;;4957920;28;95901;-80
2023/10/19 00:34:00;;;;;;;5.07;1.95;;;;;;;;;;4964796;28;94646;-80
2023/10/19 00:36:30;;;;;;;5.13;1.90;;;;;;;;;;4975201;28;92426;-80
2023/10/19 00:38:57;;;;;;;4.30;1.80;;;;;;;;;;4982595;28;94469;-78
2023/10/19 00:41:29;;;;;;;6.03;2.10;;;;;;;;;;4968705;28;95842;-78
2023/10/19 00:44:05;;;;;;;5.15;1.95;;;;;;;;;;4970748;28;93060;-78
2023/10/19 00:46:42;;;;;;;4.88;1.95;;;;;;;;;;4973027;28;97629;-80
2023/10/19 00:49:14;;;;;;;5.35;2.22;;;;;;;;;;4969879;28;92415;-77
2023/10/19 00:54:32;;;;;;;4.13;2.08;;;;;;;;;;4967484;28;95271;-80
2023/10/19 00:57:06;;;;;;;5.75;1.92;;;;;;;;;;4970170;28;92408;-80
2023/10/19 00:59:38;;;;;;;5.03;2.15;;;;;;;;;;4970322;28;92801;-80
2023/10/19 01:02:21;;;;;;;4.22;1.80;;;;;;;;;;4969305;28;98189;-80
2023/10/19 01:05:06;;;;;;;3.78;1.73;;;;;;;;;;4969483;28;92513;-80
2023/10/19 01:07:38;;;;;;;4.88;1.92;;;;;;;;;;4970906;28;92977;-80
2023/10/19 01:10:19;;;;;;;3.85;1.80;;;;;;;;;;4972786;28;93556;-80
2023/10/19 01:12:46;;;;;;;4.75;1.98;;;;;;;;;;4969104;28;95630;-80
2023/10/19 01:15:17;;;;;;;5.15;2.00;;;;;;;;;;4970058;28;93666;-79
2023/10/19 01:17:51;;;;;;;3.42;1.77;;;;;;;;;;4961745;28;92790;-79
2023/10/19 01:28:25;;;;;;;5.38;2.00;;;;;;;;;;4969637;28;93419;-79
2023/10/19 01:30:51;;;;;;;4.32;1.92;;;;;;;;;;4963832;28;93702;-80
2023/10/19 01:33:19;;;;;;;4.75;2.10;;;;;;;;;;4951554;28;92528;-79
2023/10/19 01:38:31;;;;;;;4.53;2.00;;;;;;;;;;4955240;28;92134;-79
2023/10/19 01:41:01;;;;;;;5.00;1.92;;;;;;;;;;4969818;28;92467;-80
2023/10/19 01:43:31;;;;;;;7.10;2.40;;;;;;;;;;4969015;28;94770;-80
2023/10/19 01:46:03;;;;;;;5.00;2.20;;;;;;;;;;4965937;28;95550;-80
2023/10/19 01:48:33;;;;;;;4.93;2.25;;;;;;;;;;4953635;28;99580;-80
2023/10/19 01:51:07;;;;;;;5.38;2.20;;;;;;;;;;4970142;28;94109;-79
2023/10/19 01:53:39;;;;;;;4.72;2.08;;;;;;;;;;4972242;28;92482;-78
2023/10/19 01:56:09;;;;;;;5.47;1.98;;;;;;;;;;4969184;28;93480;-79
2023/10/19 01:58:36;;;;;;;4.88;2.20;;;;;;;;;;4967564;28;92520;-78
2023/10/19 02:03:43;;;;;;;4.78;2.20;;;;;;;;;;4967356;28;95085;-79
2023/10/19 02:06:17;;;;;;;5.90;2.30;;;;;;;;;;4966765;28;92526;-78
2023/10/19 02:08:45;;;;;;;5.07;2.00;;;;;;;;;;4969536;28;94536;-78
2023/10/19 02:11:18;;;;;;;4.82;2.17;;;;;;;;;;4963593;28;95391;-79
2023/10/19 02:13:49;;;;;;;5.43;2.28;;;;;;;;;;4962097;28;92617;-79
2023/10/19 02:16:16;;;;;;;5.93;2.25;;;;;;;;;;4970651;28;95464;-79
2023/10/19 02:18:44;;;;;;;6.30;2.50;;;;;;;;;;4958578;28;92519;-80
2023/10/19 02:21:14;;;;;;;5.10;2.10;;;;;;;;;;4970121;28;92637;-80
2023/10/19 02:23:43;;;;;;;5.35;2.42;;;;;;;;;;4969599;28;93024;-80
2023/10/19 02:26:13;;;;;;;4.45;2.08;;;;;;;;;;4968628;28;92428;-80
2023/10/19 02:28:40;;;;;;;4.25;1.95;;;;;;;;;;4967862;28;92716;-79
2023/10/19 02:31:21;;;;;;;4.85;2.05;;;;;;;;;;4956987;28;93115;-80
2023/10/19 02:33:51;;;;;;;5.40;2.28;;;;;;;;;;4967623;28;92399;-80
2023/10/19 02:36:22;;;;;;;5.00;2.28;;;;;;;;;;4958233;28;95352;-80
2023/10/19 02:38:49;;;;;;;4.55;2.00;;;;;;;;;;4972117;28;93022;-80
2023/10/19 02:41:20;;;;;;;4.53;2.03;;;;;;;;;;4967482;28;95536;-80
2023/10/19 02:43:51;;;;;;;5.22;2.10;;;;;;;;;;4966649;28;95962;-79
2023/10/19 02:46:17;;;;;;;4.25;1.90;;;;;;;;;;4967669;28;92741;-79
2023/10/19 02:48:44;;;;;;;6.32;2.22;;;;;;;;;;4968657;28;93948;-79
2023/10/19 02:51:11;;;;;;;4.57;1.77;;;;;;;;;;4971450;28;95872;-79
2023/10/19 02:53:42;;;;;;;4.63;2.10;;;;;;;;;;4968629;28;91837;-79
2023/10/19 02:56:12;;;;;;;6.93;1.92;;;;;;;;;;4967951;28;92495;-78
2023/10/19 02:58:42;;;;;;;4.72;1.92;;;;;;;;;;4968006;28;93226;-80
2023/10/19 03:01:17;;;;;;;4.88;1.80;;;;;;;;;;4969625;28;94906;-81
2023/10/19 03:03:44;;;;;;;5.20;1.98;;;;;;;;;;4966044;28;96489;-80
2023/10/19 03:06:11;;;;;;;4.35;2.03;;;;;;;;;;4967528;28;93990;-79
2023/10/19 03:08:38;;;;;;;5.13;2.00;;;;;;;;;;4967807;28;92698;-79
2023/10/19 03:11:05;;;;;;;4.80;1.95;;;;;;;;;;4968695;28;93298;-79
2023/10/19 03:13:32;;;;;;;4.10;1.90;;;;;;;;;;4967162;28;92523;-79
2023/10/19 03:16:00;;;;;;;5.03;1.95;;;;;;;;;;4968140;28;92897;-80
2023/10/19 03:18:28;;;;;;;4.05;1.83;;;;;;;;;;4950413;28;98130;-79
2023/10/19 03:20:55;;;;;;;6.43;1.92;;;;;;;;;;4970957;28;92467;-80
2023/10/19 03:23:21;;;;;;;4.35;2.00;;;;;;;;;;4971685;28;93533;-80
2023/10/19 03:26:18;;;;;;;6.00;2.00;;;;;;;;;;4982119;28;94853;-79
2023/10/19 03:28:48;;;;;;;4.57;1.88;;;;;;;;;;4967694;28;100765;-79
2023/10/19 03:31:18;;;;;;;4.80;2.10;;;;;;;;;;4966497;28;92865;-79
2023/10/19 03:33:49;;;;;;;4.07;2.00;;;;;;;;;;4966855;28;92482;-80
2023/10/19 03:36:16;;;;;;;3.92;1.80;;;;;;;;;;4966097;28;95292;-80
2023/10/19 03:38:43;;;;;;;4.55;1.90;;;;;;;;;;4968404;28;94184;-80
2023/10/19 03:41:10;;;;;;;8.35;2.05;;;;;;;;;;4967583;28;92529;-80
2023/10/19 03:43:40;;;;;;;4.57;1.95;;;;;;;;;;4971944;28;93436;-80
2023/10/19 03:46:28;;;;;;;4.88;2.00;;;;;;;;;;4967466;28;92550;-80
2023/10/19 03:48:58;;;;;;;5.22;1.83;;;;;;;;;;4968526;28;93158;-80
2023/10/19 03:51:26;;;;;;;4.35;1.70;;;;;;;;;;4966204;28;95519;-79
2023/10/19 03:54:01;;;;;;;4.75;1.85;;;;;;;;;;4968939;28;92533;-80
2023/10/19 03:56:32;;;;;;;3.22;1.70;;;;;;;;;;4968805;28;97903;-80
2023/10/19 03:59:00;;;;;;;4.93;1.85;;;;;;;;;;4967470;28;93162;-80
2023/10/19 04:01:27;;;;;;;;;;;;;;;;;;4968813;28;92592;-80
2023/10/19 04:03:55;;;;;;;5.10;1.80;;;;;;;;;;4968747;28;100784;-80
2023/10/19 04:06:21;;;;;;;4.65;1.80;;;;;;;;;;4972773;28;93735;-80
2023/10/19 04:08:50;;;;;;;3.70;1.70;;;;;;;;;;4974725;28;92916;-79
2023/10/19 04:11:23;;;;;;;5.78;1.98;;;;;;;;;;4967779;28;93256;-81
2023/10/19 04:13:53;;;;;;;4.18;1.73;;;;;;;;;;4969569;28;92763;-81
2023/10/19 04:16:20;;;;;;;4.00;1.70;;;;;;;;;;4968213;28;95203;-80
2023/10/19 04:18:48;;;;;;;;;;;;;;;;;;4971400;28;93156;-80
2023/10/19 04:21:14;;;;;;;4.53;1.63;;;;;;;;;;4972138;28;93226;-80
2023/10/19 04:23:41;;;;;;;5.22;1.65;;;;;;;;;;4972679;28;93759;-80
2023/10/19 04:26:11;;;;;;;2.83;1.40;;;;;;;;;;4972727;28;92936;-80
2023/10/19 04:28:41;;;;;;;3.50;1.60;;;;;;;;;;4973219;28;92623;-80
2023/10/19 04:31:13;;;;;;;2.97;1.40;;;;;;;;;;4971754;28;93072;-80
2023/10/19 04:33:42;;;;;;;4.25;1.63;;;;;;;;;;4970672;28;92256;-81
2023/10/19 04:36:11;;;;;;;4.25;1.60;;;;;;;;;;4971610;28;93102;-80
2023/10/19 04:38:37;;;;;;;2.65;1.42;;;;;;;;;;4973742;28;93086;-80
2023/10/19 04:41:07;;;;;;;3.47;1.35;;;;;;;;;;4967945;28;94958;-81
2023/10/19 04:43:37;;;;;;;3.03;1.35;;;;;;;;;;4970176;28;96381;-81
2023/10/19 04:46:08;;;;;;;2.85;1.40;;;;;;;;;;4969549;27;94387;-80
2023/10/19 04:48:35;;;;;;;4.50;1.52;;;;;;;;;;4969536;28;92558;-80
2023/10/19 04:51:03;;;;;;;5.10;1.60;;;;;;;;;;4973657;28;92934;-78
2023/10/19 04:53:31;;;;;;;3.28;1.30;;;;;;;;;;4970615;28;92773;-78
2023/10/19 04:55:59;;;;;;;2.90;1.33;;;;;;;;;;4970864;28;93519;-81
2023/10/19 04:58:27;;;;;;;4.75;1.63;;;;;;;;;;4968932;28;96800;-80
2023/10/19 05:00:54;;;;;;;5.22;1.63;;;;;;;;;;4970537;28;92899;-80
2023/10/19 05:03:21;;;;;;;3.35;1.40;;;;;;;;;;4970988;28;92908;-80
2023/10/19 05:05:47;;;;;;;4.32;1.60;;;;;;;;;;4966223;28;98349;-80
2023/10/19 05:08:14;;;;;;;3.53;1.48;;;;;;;;;;4979252;28;92475;-80
2023/10/19 05:10:43;;;;;;;2.63;1.38;;;;;;;;;;4970880;28;92894;-80
2023/10/19 05:13:10;;;;;;;4.03;1.50;;;;;;;;;;4973438;28;93509;-80
2023/10/19 05:15:38;;;;;;;4.53;1.40;;;;;;;;;;4969201;28;95590;-80
2023/10/19 05:18:04;;;;;;;;;;;;;;;;;;4968283;28;92443;-80
2023/10/19 05:20:32;;;;;;;2.35;1.20;;;;;;;;;;4970487;28;93219;-80
2023/10/19 05:23:00;;;;;;;4.32;1.23;;;;;;;;;;4970474;28;92873;-80
2023/10/19 05:25:26;;;;;;;4.32;1.30;;;;;;;;;;4969977;28;93783;-80
2023/10/19 05:27:53;;;;;;;3.83;1.40;;;;;;;;;;4970302;28;92418;-79
2023/10/19 05:30:22;;;;;;;5.75;1.40;;;;;;;;;;4967272;28;94963;-79
2023/10/19 05:32:50;;;;;;;3.67;1.25;;;;;;;;;;4968341;28;94877;-79
2023/10/19 05:35:22;;;;;;;3.30;1.27;;;;;;;;;;4973055;28;92494;-79
2023/10/19 05:37:49;;;;;;;5.05;1.35;;;;;;;;;;4955076;28;94790;-80
2023/10/19 05:40:17;;;;;;;2.90;1.40;;;;;;;;;;4972578;28;92409;-80
2023/10/19 05:42:45;;;;;;;3.10;1.30;;;;;;;;;;4969626;28;92707;-79
2023/10/19 05:45:16;;;;;;;3.65;1.30;;;;;;;;;;4970279;28;93181;-79
2023/10/19 05:47:44;;;;;;;3.35;1.40;;;;;;;;;;4972283;28;91621;-80
2023/10/19 05:50:14;;;;;;;3.60;1.40;;;;;;;;;;4969670;28;93954;-80
2023/10/19 05:52:42;;;;;;;3.08;1.40;;;;;;;;;;4970707;28;93318;-80
2023/10/19 05:55:11;;;;;;;3.53;1.40;;;;;;;;;;4977408;28;94817;-78
2023/10/19 05:57:40;;;;;;;4.07;1.50;;;;;;;;;;4969646;28;93581;-78
2023/10/19 06:00:12;;;;;;;4.45;1.50;;;;;;;;;;4968182;28;93131;-79
2023/10/19 06:02:45;;;;;;;4.53;1.40;;;;;;;;;;4969986;28;92861;-80
2023/10/19 06:05:15;;;;;;;4.18;1.67;;;;;;;;;;4969423;28;93089;-80
2023/10/19 06:07:46;;;;;;;4.93;1.42;;;;;;;;;;4981190;28;92888;-79
2023/10/19 06:10:17;;;;;;;6.40;1.80;;;;;;;;;;4976489;28;94351;-78
2023/10/19 06:12:44;;;;;;;5.88;1.45;;;;;;;;;;4976501;28;93979;-79
2023/10/19 06:15:12;;;;;;;3.95;1.35;;;;;;;;;;4970082;28;92528;-78
2023/10/19 06:17:41;;;;;;;2.75;1.20;;;;;;;;;;4972747;28;93248;-78
2023/10/19 06:20:19;;;;;;;5.78;1.60;;;;;;;;;;4965914;28;94889;-79
2023/10/19 06:22:50;;;;;;;4.43;1.40;;;;;;;;;;4965115;28;95075;-78
2023/10/19 06:25:21;;;;;;;3.05;1.40;;;;;;;;;;4971408;28;93176;-78
2023/10/19 06:27:48;;;;;;;3.90;1.40;;;;;;;;;;4970367;28;93241;-79
2023/10/19 06:30:18;;;;;;;4.03;1.30;;;;;;;;;;4968901;28;99748;-81
2023/10/19 06:32:47;;;;;;;3.78;1.17;;;;;;;;;;4970470;28;93146;-78
2023/10/19 06:35:14;;;;;;;3.97;1.30;;;;;;;;;;4969944;28;92897;-78
2023/10/19 06:37:42;;;;;;;5.05;1.42;;;;;;;;;;4979898;28;91644;-78
2023/10/19 06:40:11;;;;;;;3.53;1.40;;;;;;;;;;4976643;28;94472;-79
2023/10/19 06:42:39;;;;;;;3.83;1.38;;;;;;;;;;4973537;28;93941;-78
2023/10/19 06:45:07;;;;;;;4.55;1.33;;;;;;;;;;4968244;28;95681;-79
2023/10/19 06:47:37;;;;;;;5.55;1.30;;;;;;;;;;4969685;28;92960;-79
2023/10/19 06:50:10;;;;;;;4.78;1.40;;;;;;;;;;4968865;28;93287;-79
2023/10/19 06:52:40;;;;;;;5.30;1.30;;;;;;;;;;4975066;28;92945;-78
2023/10/19 06:55:13;;;;;;;3.85;1.20;;;;;;;;;;4969247;28;92447;-78
2023/10/19 06:57:43;;;;;;;4.55;1.30;;;;;;;;;;4968890;28;93979;-78
2023/10/19 07:00:19;;;;;;;2.35;1.27;;;;;;;;;;4967632;28;100462;-78
2023/10/19 07:02:47;;;;;;;4.07;1.33;;;;;;;;;;4970525;28;92193;-78
2023/10/19 07:05:18;;;;;;;5.00;1.13;;;;;;;;;;4966734;28;93106;-79
2023/10/19 07:07:45;;;;;;;3.85;1.40;;;;;;;;;;4974106;28;92462;-79
2023/10/19 07:10:13;;;;;;;3.75;1.20;;;;;;;;;;4966156;28;95276;-80
2023/10/19 07:12:41;;;;;;;2.63;1.23;;;;;;;;;;4968014;28;93167;-79
2023/10/19 07:15:09;;;;;;;3.35;1.20;;;;;;;;;;4968343;28;92458;-79
2023/10/19 07:17:37;;;;;;;3.42;1.10;;;;;;;;;;4969241;28;93654;-79
2023/10/19 07:20:08;;;;;;;3.90;1.20;;;;;;;;;;4967677;28;93785;-78
2023/10/19 07:22:38;;;;;;;3.55;1.30;;;;;;;;;;4968893;28;93061;-79
2023/10/19 07:25:05;;;;;;;3.90;1.20;;;;;;;;;;4971065;28;92680;-79
2023/10/19 07:27:33;;;;;;;3.13;1.20;;;;;;;;;;4969437;28;91857;-78
2023/10/19 07:30:09;;;;;;;3.47;1.23;;;;;;;;;;4957397;28;92970;-79
2023/10/19 07:32:35;;;;;;;2.70;1.10;;;;;;;;;;4968965;28;93189;-78
2023/10/19 07:35:02;;;;;;;2.92;1.10;;;;;;;;;;4966977;28;95348;-79
2023/10/19 07:37:29;;;;;;;5.68;1.58;;;;;;;;;;4975996;28;95209;-81
2023/10/19 07:39:57;;;;;;;3.17;1.00;;;;;;;;;;4966770;28;93107;-79
2023/10/19 07:42:24;;;;;;;3.92;1.33;;;;;;;;;;4967701;28;92468;-78
2023/10/19 07:44:51;;;;;;;3.22;1.10;;;;;;;;;;4968339;28;94154;-79
2023/10/19 07:47:17;;;;;;;3.72;1.33;;;;;;;;;;4970508;28;93569;-78
2023/10/19 07:49:44;;;;;;;5.57;1.33;;;;;;;;;;4966640;28;94436;-79
2023/10/19 07:52:11;;;;;;;4.93;1.23;;;;;;;;;;4973188;28;92750;-78
2023/10/19 07:54:38;;;;;;;3.80;1.20;;;;;;;;;;4970700;28;93017;-78
2023/10/19 07:57:08;;;;;;;2.53;1.08;;;;;;;;;;4971212;28;93962;-78
2023/10/19 07:59:34;;;;;;;4.25;1.40;;;;;;;;;;4968350;28;95811;-78
2023/10/19 08:02:04;;;;;;;3.85;1.10;;;;;;;;;;4969792;28;92558;-78
2023/10/19 08:04:31;;;;;;;3.65;1.15;;;;;;;;;;4970468;28;94104;-78
2023/10/19 08:06:58;;;;;;;3.30;1.02;;;;;;;;;;4973483;28;93225;-78
2023/10/19 08:09:31;;;;;;;3.03;1.10;;;;;;;;;;4970484;28;92813;-78
2023/10/19 08:11:59;;;;;;;4.32;1.42;;;;;;;;;;4960752;28;93020;-78
2023/10/19 08:14:28;;;;;;;2.75;1.10;;;;;;;;;;4967363;28;92991;-78
2023/10/19 08:16:56;;;;;;;3.60;1.25;;;;;;;;;;4970125;28;92122;-78
2023/10/19 08:19:23;;;;;;;3.92;1.05;;;;;;;;;;4968247;28;94467;-78
2023/10/19 08:21:49;;;;;;;3.20;1.30;;;;;;;;;;4968465;28;92687;-79
2023/10/19 08:24:17;;;;;;;4.75;1.20;;;;;;;;;;4968385;28;95051;-79
2023/10/19 08:26:47;;;;;;;3.22;1.10;;;;;;;;;;4970863;28;93013;-78
2023/10/19 08:29:14;;;;;;;2.13;0.93;;;;;;;;;;4966870;28;92535;-79
2023/10/19 08:31:40;;;;;;;2.70;1.15;;;;;;;;;;4967410;28;94144;-79
2023/10/19 08:34:09;;;;;;;1.98;1.00;;;;;;;;;;4968446;28;92897;-78
2023/10/19 08:36:37;;;;;;;2.72;1.08;;;;;;;;;;4984939;28;95532;-79
2023/10/19 08:39:05;;;;;;;2.80;1.00;;;;;;;;;;4967838;28;96002;-79
2023/10/19 08:41:34;;;;;;;2.42;1.20;;;;;;;;;;4969816;28;92679;-78
2023/10/19 08:44:02;;;;;;;2.80;1.13;;;;;;;;;;4968977;28;93418;-79
2023/10/19 08:46:28;;;;;;;;;;;;;;;;;;4972006;27;93246;-78
2023/10/19 08:48:56;;;;;;;1.90;1.00;;;;;;;;;;4971852;28;105497;-79
2023/10/19 08:51:24;;;;;;;3.00;0.90;;;;;;;;;;4974022;28;95171;-78
2023/10/19 08:53:54;;;;;;;1.83;1.10;;;;;;;;;;4970885;28;94223;-78
2023/10/19 08:56:23;;;;;;;2.22;1.10;;;;;;;;;;4969120;28;92826;-78
2023/10/19 08:58:51;;;;;;;4.80;1.30;;;;;;;;;;4969978;28;94491;-78
2023/10/19 09:01:19;;;;;;;2.75;1.20;;;;;;;;;;4967432;28;93008;-78
2023/10/19 09:03:46;;;;;;;2.65;1.33;;;;;;;;;;4967848;28;92991;-78
2023/10/19 09:06:14;;;;;;;3.28;1.30;;;;;;;;;;4968453;28;92721;-76
2023/10/19 09:08:41;;;;;;;4.07;1.50;;;;;;;;;;4968782;28;92585;-78
2023/10/19 09:11:08;;;;;;;3.38;1.10;;;;;;;;;;4969803;28;92454;-78
2023/10/19 09:13:46;;;;;;;3.38;1.20;;;;;;;;;;4970483;28;99463;-78
2023/10/19 09:16:14;;;;;;;3.95;1.30;;;;;;;;;;4968573;28;95293;-78
2023/10/19 09:18:41;;;;;;;4.15;1.40;;;;;;;;;;4969586;28;93009;-78
2023/10/19 09:21:11;;;;;;;3.17;1.08;;;;;;;;;;4969227;28;92647;-78
2023/10/19 09:23:38;;;;;;;3.13;1.10;;;;;;;;;;4969993;28;92771;-78
2023/10/19 09:26:07;;;;;;;4.55;1.20;;;;;;;;;;4968112;28;94008;-79
2023/10/19 09:28:36;;;;;;;2.25;1.10;;;;;;;;;;4968406;28;92446;-79
2023/10/19 09:31:03;;;;;;;4.20;1.30;;;;;;;;;;4962575;28;92701;-79
2023/10/19 09:33:34;;;;;;;4.50;1.35;;;;;;;;;;4964808;28;93324;-79
2023/10/19 09:36:02;;;;;;;3.67;1.33;;;;;;;;;;4964630;28;92914;-79
2023/10/19 09:38:28;;;;;;;4.05;1.30;;;;;;;;;;4970363;28;94978;-79
2023/10/19 09:40:56;;;;;;;3.58;1.20;;;;;;;;;;4975289;28;92459;-79
2023/10/19 09:43:42;;;;;;;3.38;1.10;;;;;;;;;;4970336;28;93641;-79
2023/10/19 09:46:11;;;;;;;3.08;1.00;;;;;;;;;;4968465;28;93695;-79
2023/10/19 09:48:41;;;;;;;2.45;1.27;;;;;;;;;;4969166;28;92636;-78
2023/10/19 09:51:09;;;;;;;3.25;1.10;;;;;;;;;;4969512;28;92768;-78
2023/10/19 09:53:44;;;;;;;2.83;1.20;;;;;;;;;;4968106;28;94441;-77
2023/10/19 09:56:14;;;;;;;3.22;1.20;;;;;;;;;;4967742;28;91745;-77
2023/10/19 09:58:45;;;;;;;3.47;1.17;;;;;;;;;;4953752;28;93419;-77
2023/10/19 10:01:14;;;;;;;3.75;1.15;;;;;;;;;;4968775;28;92792;-77
2023/10/19 10:03:45;;;;;;;3.25;1.20;;;;;;;;;;4967147;28;96525;-78
2023/10/19 10:06:14;;;;;;;3.20;1.10;;;;;;;;;;4966160;28;92972;-78
2023/10/19 10:08:42;;;;;;;3.05;1.20;;;;;;;;;;4969041;28;92678;-78
2023/10/19 10:11:22;;;;;;;3.28;1.10;;;;;;;;;;4967990;28;93927;-78
2023/10/19 10:13:52;;;;;;;2.83;1.20;;;;;;;;;;4968236;28;93566;-78
2023/10/19 10:16:23;;;;;;;3.22;1.02;;;;;;;;;;4966125;28;92534;-80
2023/10/19 10:18:53;;;;;;;2.75;1.27;;;;;;;;;;4986257;28;92808;-78
2023/10/19 10:21:21;;;;;;;3.20;1.08;;;;;;;;;;4970462;28;92115;-79
2023/10/19 10:23:49;;;;;;;3.97;1.20;;;;;;;;;;4967351;28;92821;-79
2023/10/19 10:26:17;;;;;;;3.25;1.23;;;;;;;;;;4966591;28;92938;-79
2023/10/19 10:28:50;;;;;;;4.15;1.08;;;;;;;;;;4964461;28;95190;-79
2023/10/19 10:31:21;;;;;;;3.88;1.00;;;;;;;;;;4962235;28;95674;-78
2023/10/19 10:33:49;;;;;;;4.40;1.38;;;;;;;;;;4966271;28;95976;-78
2023/10/19 10:36:17;;;;;;;3.33;1.10;;;;;;;;;;4963709;28;92531;-79
2023/10/19 10:38:48;;;;;;;2.22;1.05;;;;;;;;;;4956912;28;92652;-78
2023/10/19 10:41:31;;;;;;;2.28;0.90;;;;;;;;;;4970881;28;93591;-79
2023/10/19 10:43:58;;;;;;;2.97;1.10;;;;;;;;;;4967918;28;92854;-79
2023/10/19 10:46:27;;;;;;;3.92;1.30;;;;;;;;;;4965859;28;97091;-79
2023/10/19 10:48:53;;;;;;;2.80;1.20;;;;;;;;;;4970310;28;92842;-79
2023/10/19 10:51:21;;;;;;;3.75;1.30;;;;;;;;;;4980979;28;94167;-79
2023/10/19 10:53:49;;;;;;;2.92;1.20;;;;;;;;;;4968979;28;95509;-79
2023/10/19 10:56:16;;;;;;;3.13;1.10;;;;;;;;;;4973674;28;93221;-79
2023/10/19 10:58:43;;;;;;;3.08;1.10;;;;;;;;;;4968269;28;93339;-79
2023/10/19 11:01:10;;;;;;;4.20;1.20;;;;;;;;;;4968374;28;93164;-79
2023/10/19 11:03:37;;;;;;;3.42;1.20;;;;;;;;;;4970077;28;92865;-78
2023/10/19 11:06:04;;;;;;;2.92;1.00;;;;;;;;;;4964033;28;93938;-78
2023/10/19 11:08:32;;;;;;;3.08;1.20;;;;;;;;;;4969197;28;92544;-78
2023/10/19 11:11:04;;;;;;;3.80;1.05;;;;;;;;;;4969163;28;93141;-78
2023/10/19 11:13:33;;;;;;;3.30;1.10;;;;;;;;;;4968465;28;93053;-79
2023/10/19 11:16:01;;;;;;;3.60;1.20;;;;;;;;;;4970292;28;92830;-79
2023/10/19 11:18:37;;;;;;;2.90;1.00;;;;;;;;;;4966047;28;97102;-78
2023/10/19 11:21:07;;;;;;;3.25;1.10;;;;;;;;;;4967330;28;93663;-78
2023/10/19 11:23:44;;;;;;;4.18;1.25;;;;;;;;;;4966275;28;92896;-78
2023/10/19 11:26:11;;;;;;;3.15;1.10;;;;;;;;;;4968760;28;93864;-78
2023/10/19 11:28:50;;;;;;;3.20;1.00;;;;;;;;;;4966495;28;92598;-79
2023/10/19 11:31:17;;;;;;;3.25;1.10;;;;;;;;;;4956918;28;92788;-79
2023/10/19 11:33:44;;;;;;;2.97;1.00;;;;;;;;;;4967961;28;93323;-79
2023/10/19 11:36:14;;;;;;;2.95;1.05;;;;;;;;;;4967267;28;92175;-79
2023/10/19 11:38:47;;;;;;;2.75;0.98;;;;;;;;;;4967717;28;94263;-79
2023/10/19 11:41:14;;;;;;;4.78;1.17;;;;;;;;;;4966027;28;94181;-79
2023/10/19 11:43:42;;;;;;;2.65;1.00;;;;;;;;;;4967312;28;95236;-79
2023/10/19 11:46:09;;;;;;;4.90;1.00;;;;;;;;;;4967128;28;95082;-78
2023/10/19 11:48:36;;;;;;;2.67;1.00;;;;;;;;;;4968806;28;96069;-78
2023/10/19 11:51:03;;;;;;;4.95;1.02;;;;;;;;;;4972560;28;94201;-78
2023/10/19 11:53:34;;;;;;;3.45;1.00;;;;;;;;;;4965854;28;95693;-79
2023/10/19 11:56:03;;;;;;;3.78;1.00;;;;;;;;;;4966989;28;92919;-79
2023/10/19 11:58:37;;;;;;;4.18;1.00;;;;;;;;;;4965837;28;93519;-78
2023/10/19 12:01:13;;;;;;;4.63;1.20;;;;;;;;;;4982451;28;95424;-78
2023/10/19 12:03:40;;;;;;;4.05;1.13;;;;;;;;;;4968007;28;92844;-77
2023/10/19 12:06:08;;;;;;;4.60;1.35;;;;;;;;;;4957892;28;92692;-77
2023/10/19 12:08:35;;;;;;;6.13;1.23;;;;;;;;;;4961467;28;95957;-77
2023/10/19 12:11:03;;;;;;;5.65;1.40;;;;;;;;;;4965887;28;93369;-76
2023/10/19 12:13:33;;;;;;;5.60;1.20;;;;;;;;;;4966961;28;93228;-77
2023/10/19 12:16:04;;;;;;;4.18;1.20;;;;;;;;;;4960781;28;92621;-77
2023/10/19 12:18:31;;;;;;;5.65;1.25;;;;;;;;;;4965344;28;95292;-78
2023/10/19 12:20:59;;;;;;;4.22;1.10;;;;;;;;;;4966553;28;93374;-78
2023/10/19 12:23:26;;;;;;;4.35;1.20;;;;;;;;;;4966190;28;92442;-77
2023/10/19 12:25:52;;;;;;;3.88;1.10;;;;;;;;;;4967232;28;93138;-76
2023/10/19 12:28:24;;;;;;;5.32;1.25;;;;;;;;;;4966079;28;93213;-77
2023/10/19 12:30:51;;;;;;;4.35;1.10;;;;;;;;;;4969571;28;92581;-77
2023/10/19 12:33:19;;;;;;;4.80;1.20;;;;;;;;;;4965045;28;95954;-77
2023/10/19 12:35:53;;;;;;;3.50;1.00;;;;;;;;;;4969641;28;93162;-76
2023/10/19 12:38:20;;;;;;;4.70;1.10;;;;;;;;;;4970586;28;93014;-77
2023/10/19 12:40:47;;;;;;;4.53;1.20;;;;;;;;;;4961366;28;92967;-77
2023/10/19 12:43:14;;;;;;;2.40;0.93;;;;;;;;;;4970104;28;92481;-77
2023/10/19 12:45:43;;;;;;;5.43;1.15;;;;;;;;;;4965486;28;94271;-77
2023/10/19 12:48:10;;;;;;;4.00;1.20;;;;;;;;;;4969396;27;92554;-77
2023/10/19 12:50:38;;;;;;;5.30;1.10;;;;;;;;;;4972429;28;91719;-77
2023/10/19 12:53:06;;;;;;;3.72;1.17;;;;;;;;;;4972266;28;92723;-78
2023/10/19 12:55:34;;;;;;;3.17;1.13;;;;;;;;;;4965603;28;92805;-78
2023/10/19 12:58:07;;;;;;;4.13;1.10;;;;;;;;;;4963032;28;94927;-78
2023/10/19 13:00:40;;;;;;;6.20;1.40;;;;;;;;;;4961055;28;93179;-78
2023/10/19 13:03:08;;;;;;;5.63;1.40;;;;;;;;;;4980148;28;93119;-78
2023/10/19 13:05:35;;;;;;;5.13;1.15;;;;;;;;;;4963396;28;92875;-78
2023/10/19 13:08:02;;;;;;;5.25;1.20;;;;;;;;;;4956357;28;93597;-78
2023/10/19 13:10:32;;;;;;;6.60;1.40;;;;;;;;;;4965630;28;92436;-78
2023/10/19 13:13:00;;;;;;;4.25;1.27;;;;;;;;;;4967494;28;92481;-78
2023/10/19 13:15:30;;;;;;;5.45;1.23;;;;;;;;;;4973128;28;91937;-76
2023/10/19 13:17:58;;;;;;;5.95;1.30;;;;;;;;;;4971040;28;93127;-78
2023/10/19 13:20:25;;;;;;;5.72;1.45;;;;;;;;;;4968330;28;97921;-77
2023/10/19 13:22:52;;;;;;;6.68;1.38;;;;;;;;;;4966662;28;95578;-76
2023/10/19 13:25:28;;;;;;;5.40;1.30;;;;;;;;;;4965493;28;95125;-77
2023/10/19 13:27:55;;;;;;;4.78;1.23;;;;;;;;;;4961269;28;94347;-77
2023/10/19 13:30:23;;;;;;;5.18;1.30;;;;;;;;;;4973271;28;92778;-78
2023/10/19 13:32:49;;;;;;;3.55;1.30;;;;;;;;;;4964139;28;93173;-78
2023/10/19 13:35:17;;;;;;;4.40;1.40;;;;;;;;;;4967062;28;93855;-78
2023/10/19 13:37:44;;;;;;;6.47;1.30;;;;;;;;;;4968845;28;92857;-78
2023/10/19 13:40:10;;;;;;;13.40;1.30;;;;;;;;;;4957168;28;92245;-78
2023/10/19 13:42:38;;;;;;;6.22;1.50;;;;;;;;;;4968165;28;92798;-79
2023/10/19 13:45:05;;;;;;;7.35;1.67;;;;;;;;;;4966287;28;95929;-78
2023/10/19 13:47:33;;;;;;;6.88;1.70;;;;;;;;;;4959629;28;95952;-77
2023/10/19 13:50:00;;;;;;;5.60;1.48;;;;;;;;;;4963759;28;92986;-77
2023/10/19 13:52:27;;;;;;;5.00;1.35;;;;;;;;;;4968699;28;92837;-78
2023/10/19 13:54:53;;;;;;;4.85;1.40;;;;;;;;;;4968166;28;93799;-78
2023/10/19 13:57:21;;;;;;;4.50;1.42;;;;;;;;;;4968106;28;93524;-77
2023/10/19 13:59:49;;;;;;;;;;;;;;;;;;4968751;28;93167;-79
2023/10/19 14:02:15;;;;;;;5.80;1.50;;;;;;;;;;4969177;28;92739;-78
2023/10/19 14:04:42;;;;;;;4.50;1.50;;;;;;;;;;4970859;28;94172;-78
2023/10/19 14:07:09;;;;;;;5.90;1.40;;;;;;;;;;4967621;28;93027;-78
2023/10/19 14:09:35;;;;;;;6.45;1.40;;;;;;;;;;4966393;28;92677;-78
2023/10/19 14:12:04;;;;;;;5.80;1.30;;;;;;;;;;4965920;28;95153;-78
2023/10/19 14:14:30;;;;;;;5.35;1.30;;;;;;;;;;4967363;28;93703;-78
2023/10/19 14:16:58;;;;;;;6.50;1.65;;;;;;;;;;4965742;28;94006;-78
2023/10/19 14:19:25;;;;;;;8.35;1.83;;;;;;;;;;4971025;28;92746;-79
2023/10/19 14:21:52;;;;;;;5.18;1.60;;;;;;;;;;4967722;28;92828;-79
2023/10/19 14:24:19;;;;;;;7.78;1.60;;;;;;;;;;4962424;28;94791;-78
2023/10/19 14:26:46;;;;;;;6.43;1.50;;;;;;;;;;4983963;28;93883;-79
2023/10/19 14:29:13;;;;;;;4.10;1.33;;;;;;;;;;4973467;28;93342;-79
2023/10/19 14:31:40;;;;;;;5.47;1.50;;;;;;;;;;4965935;28;93078;-78
2023/10/19 14:34:08;;;;;;;5.35;1.42;;;;;;;;;;4966013;28;95581;-78
2023/10/19 14:36:34;;;;;;;5.28;1.42;;;;;;;;;;4965898;28;95178;-78
2023/10/19 14:39:01;;;;;;;6.25;1.48;;;;;;;;;;4968467;28;95790;-78
2023/10/19 14:41:27;;;;;;;4.72;1.33;;;;;;;;;;4971184;28;93225;-78
2023/10/19 14:43:54;;;;;;;6.10;1.52;;;;;;;;;;4957188;28;93015;-78
2023/10/19 14:46:22;;;;;;;4.85;1.38;;;;;;;;;;4967104;28;93004;-78
2023/10/19 14:48:48;;;;;;;;;;;;;;;;;;4971676;28;92937;-78
2023/10/19 14:51:15;;;;;;;4.57;1.17;;;;;;;;;;4985614;28;109468;-78
2023/10/19 14:53:41;;;;;;;5.10;1.45;;;;;;;;;;4969430;28;92084;-78
2023/10/19 14:56:08;;;;;;;4.47;1.38;;;;;;;;;;4967828;28;92625;-78
2023/10/19 14:58:34;;;;;;;5.10;1.50;;;;;;;;;;4966492;28;94341;-78
2023/10/19 15:01:01;;;;;;;4.95;1.20;;;;;;;;;;4968125;28;95754;-78
2023/10/19 15:03:28;;;;;;;5.78;1.42;;;;;;;;;;4968862;28;92905;-78
2023/10/19 15:05:56;;;;;;;7.30;1.80;;;;;;;;;;4964526;28;95779;-78
2023/10/19 15:08:24;;;;;;;8.63;1.50;;;;;;;;;;4968820;28;92853;-78
2023/10/19 15:10:51;;;;;;;8.60;1.50;;;;;;;;;;4967486;28;92950;-78
2023/10/19 15:13:17;;;;;;;9.63;1.80;;;;;;;;;;4962896;28;93213;-78